Portada
METAR-TAF:

METAR-TAF

Aeroports :

Greer, Carolina del Sud, Estats Units d'Amèrica

latitud: 34-53-02N, longitud: 082-13-15W, altitud: 296 m

Observació

L'informe es va fer fa 48 minuts, a les 01:53 UTC
Vent 5 kt del Nord
Temperatura 24°C
Humitat 61%
Pressió 1015 hPa
Visibilitat: 16.1 km
Cel clar

METAR: KGSP 210153Z 01005KT 10SM CLR 24/16 A2996 RMK AO2 SLP135 T02390156

Hora: 22:41 (02:41 UTC)

Pronòstic

L'informe es va fer fa 41 minuts, a les 02:00 UTC
Pronòstic vàlid del 21 a les 02 UTC al 21 a les 24 UTC
Vent 4 kt del Nord
Visibilitat: 10 km
Escasses núvols a una alçada de 10000 ft
Núvols disperses a una alçada de 25000 ft
A partir de les 21 a les 1300 UTC
Vent 5 kt del Nord-Est
Visibilitat: 10 km
Cel clar
A partir de les 21 a les 1800 UTC
Vent 5 kt del Sud
Visibilitat: 10 km
Cel clar

TAF: KGSP 210200Z 2102/2124 01004KT P6SM FEW100 SCT250 FM211300 04005KT P6SM SKC FM211800 17005KT P6SM SKC

Observacions i pronòstics meteorològics de més de 4000 aeroports (METAR i TAF).

Les estacions disponibles són els punts grocs i vermells al mapa.

Posi el ratolí al punt desitjat per veure el nom de l'estació.

Feu clic per veure les observacions i els pronòstics meteorològics.

Per canviar el mapa: feu clic els botons verds amb una creu de color negre per apropar; al botó verd amb un guió per allunyar la imatge; o en les fletxes verdes per a mapes adjacents.


METAR-TAF: